sensor_id;sensor_type;location;lat;lon;timestamp;temperature;humidity
16479;DHT22;8350;52.316;10.530;2022-09-09T00:02:27;14.00;99.90
16479;DHT22;8350;52.316;10.530;2022-09-09T00:05:04;14.00;99.90
16479;DHT22;8350;52.316;10.530;2022-09-09T00:07:45;14.00;99.90
16479;DHT22;8350;52.316;10.530;2022-09-09T00:10:20;13.90;99.90
16479;DHT22;8350;52.316;10.530;2022-09-09T00:12:54;14.00;99.90
16479;DHT22;8350;52.316;10.530;2022-09-09T00:15:25;13.90;99.90
16479;DHT22;8350;52.316;10.530;2022-09-09T00:17:58;13.90;99.90
16479;DHT22;8350;52.316;10.530;2022-09-09T00:20:34;13.90;99.90
16479;DHT22;8350;52.316;10.530;2022-09-09T00:23:10;14.00;99.90
16479;DHT22;8350;52.316;10.530;2022-09-09T00:25:44;14.00;99.90
16479;DHT22;8350;52.316;10.530;2022-09-09T00:28:19;13.90;99.90
16479;DHT22;8350;52.316;10.530;2022-09-09T00:30:47;13.90;99.90
16479;DHT22;8350;52.316;10.530;2022-09-09T00:33:17;13.90;99.90
16479;DHT22;8350;52.316;10.530;2022-09-09T00:35:49;13.90;99.90
16479;DHT22;8350;52.316;10.530;2022-09-09T00:38:24;13.80;99.90
16479;DHT22;8350;52.316;10.530;2022-09-09T00:40:55;13.70;99.90
16479;DHT22;8350;52.316;10.530;2022-09-09T00:43:28;13.70;99.90
16479;DHT22;8350;52.316;10.530;2022-09-09T00:46:16;13.60;99.90
16479;DHT22;8350;52.316;10.530;2022-09-09T00:48:54;13.70;99.90
16479;DHT22;8350;52.316;10.530;2022-09-09T00:51:32;13.80;99.90
16479;DHT22;8350;52.316;10.530;2022-09-09T00:54:15;13.80;99.90
16479;DHT22;8350;52.316;10.530;2022-09-09T00:57:02;13.80;99.90
16479;DHT22;8350;52.316;10.530;2022-09-09T00:59:35;13.70;99.90
16479;DHT22;8350;52.316;10.530;2022-09-09T01:02:16;13.70;99.90
16479;DHT22;8350;52.316;10.530;2022-09-09T01:04:48;13.70;99.90
16479;DHT22;8350;52.316;10.530;2022-09-09T01:07:18;13.70;99.90
16479;DHT22;8350;52.316;10.530;2022-09-09T01:09:52;13.60;99.90
16479;DHT22;8350;52.316;10.530;2022-09-09T01:12:26;13.60;99.90
16479;DHT22;8350;52.316;10.530;2022-09-09T01:15:00;13.50;99.90
16479;DHT22;8350;52.316;10.530;2022-09-09T01:17:32;13.50;99.90
16479;DHT22;8350;52.316;10.530;2022-09-09T01:20:05;13.60;99.90
16479;DHT22;8350;52.316;10.530;2022-09-09T01:22:40;13.60;99.90
16479;DHT22;8350;52.316;10.530;2022-09-09T01:25:29;13.60;99.90
16479;DHT22;8350;52.316;10.530;2022-09-09T01:28:00;13.60;99.90
16479;DHT22;8350;52.316;10.530;2022-09-09T01:30:30;13.70;99.90
16479;DHT22;8350;52.316;10.530;2022-09-09T01:32:58;13.60;99.90
16479;DHT22;8350;52.316;10.530;2022-09-09T01:35:40;13.60;99.90
16479;DHT22;8350;52.316;10.530;2022-09-09T01:38:10;13.50;99.90
16479;DHT22;8350;52.316;10.530;2022-09-09T01:40:37;13.40;99.90
16479;DHT22;8350;52.316;10.530;2022-09-09T01:43:06;13.50;99.90
16479;DHT22;8350;52.316;10.530;2022-09-09T01:45:33;13.50;99.90
16479;DHT22;8350;52.316;10.530;2022-09-09T01:48:01;13.50;99.90
16479;DHT22;8350;52.316;10.530;2022-09-09T01:50:29;13.40;99.90
16479;DHT22;8350;52.316;10.530;2022-09-09T01:52:57;13.30;99.90
16479;DHT22;8350;52.316;10.530;2022-09-09T01:55:29;13.20;99.90
16479;DHT22;8350;52.316;10.530;2022-09-09T01:58:09;13.10;99.90
16479;DHT22;8350;52.316;10.530;2022-09-09T02:00:43;13.00;99.90
16479;DHT22;8350;52.316;10.530;2022-09-09T02:03:20;12.90;99.90
16479;DHT22;8350;52.316;10.530;2022-09-09T02:05:55;12.80;99.90
16479;DHT22;8350;52.316;10.530;2022-09-09T02:08:31;12.70;99.90
16479;DHT22;8350;52.316;10.530;2022-09-09T02:11:03;12.60;99.90
16479;DHT22;8350;52.316;10.530;2022-09-09T02:13:35;12.70;99.90
16479;DHT22;8350;52.316;10.530;2022-09-09T02:16:07;12.70;99.90
16479;DHT22;8350;52.316;10.530;2022-09-09T02:18:49;12.80;99.90
16479;DHT22;8350;52.316;10.530;2022-09-09T02:21:18;12.70;99.90
16479;DHT22;8350;52.316;10.530;2022-09-09T02:23:47;12.80;99.90
16479;DHT22;8350;52.316;10.530;2022-09-09T02:26:19;12.80;99.90
16479;DHT22;8350;52.316;10.530;2022-09-09T02:28:51;12.90;99.90
16479;DHT22;8350;52.316;10.530;2022-09-09T02:31:22;13.00;99.90
16479;DHT22;8350;52.316;10.530;2022-09-09T02:33:54;13.20;99.90
16479;DHT22;8350;52.316;10.530;2022-09-09T02:36:24;13.20;99.90
16479;DHT22;8350;52.316;10.530;2022-09-09T02:38:52;13.30;99.90
16479;DHT22;8350;52.316;10.530;2022-09-09T02:41:21;13.30;99.90
16479;DHT22;8350;52.316;10.530;2022-09-09T02:43:51;13.30;99.90
16479;DHT22;8350;52.316;10.530;2022-09-09T02:46:28;13.40;99.90
16479;DHT22;8350;52.316;10.530;2022-09-09T02:49:00;13.40;99.90
16479;DHT22;8350;52.316;10.530;2022-09-09T02:51:37;13.40;99.90
16479;DHT22;8350;52.316;10.530;2022-09-09T02:54:13;13.40;99.90
16479;DHT22;8350;52.316;10.530;2022-09-09T02:56:47;13.40;99.90
16479;DHT22;8350;52.316;10.530;2022-09-09T02:59:18;13.40;99.90
16479;DHT22;8350;52.316;10.530;2022-09-09T03:01:45;13.40;99.90
16479;DHT22;8350;52.316;10.530;2022-09-09T03:04:12;13.40;99.90
16479;DHT22;8350;52.316;10.530;2022-09-09T03:06:40;13.40;99.90
16479;DHT22;8350;52.316;10.530;2022-09-09T03:09:07;13.40;99.90
16479;DHT22;8350;52.316;10.530;2022-09-09T03:11:37;13.40;99.90
16479;DHT22;8350;52.316;10.530;2022-09-09T03:14:05;13.40;99.90
16479;DHT22;8350;52.316;10.530;2022-09-09T03:16:33;13.50;99.90
16479;DHT22;8350;52.316;10.530;2022-09-09T03:19:01;13.50;99.90
16479;DHT22;8350;52.316;10.530;2022-09-09T03:21:28;13.60;99.90
16479;DHT22;8350;52.316;10.530;2022-09-09T03:23:55;13.70;99.90
16479;DHT22;8350;52.316;10.530;2022-09-09T03:26:22;13.70;99.90
16479;DHT22;8350;52.316;10.530;2022-09-09T03:28:50;13.70;99.90
16479;DHT22;8350;52.316;10.530;2022-09-09T03:31:17;13.70;99.90
16479;DHT22;8350;52.316;10.530;2022-09-09T03:33:46;13.60;99.90
16479;DHT22;8350;52.316;10.530;2022-09-09T03:36:13;13.60;99.90
16479;DHT22;8350;52.316;10.530;2022-09-09T03:38:41;13.60;99.90
16479;DHT22;8350;52.316;10.530;2022-09-09T03:41:08;13.50;99.90
16479;DHT22;8350;52.316;10.530;2022-09-09T03:43:35;13.50;99.90
16479;DHT22;8350;52.316;10.530;2022-09-09T03:46:03;13.60;99.90
16479;DHT22;8350;52.316;10.530;2022-09-09T03:48:30;13.50;99.90
16479;DHT22;8350;52.316;10.530;2022-09-09T03:50:58;13.40;99.90
16479;DHT22;8350;52.316;10.530;2022-09-09T03:53:26;13.40;99.90
16479;DHT22;8350;52.316;10.530;2022-09-09T03:55:55;13.30;99.90
16479;DHT22;8350;52.316;10.530;2022-09-09T03:58:25;13.30;99.90
16479;DHT22;8350;52.316;10.530;2022-09-09T04:00:54;13.30;99.90
16479;DHT22;8350;52.316;10.530;2022-09-09T04:03:22;13.30;99.90
16479;DHT22;8350;52.316;10.530;2022-09-09T04:05:50;13.30;99.90
16479;DHT22;8350;52.316;10.530;2022-09-09T04:08:20;13.20;99.90
16479;DHT22;8350;52.316;10.530;2022-09-09T04:10:47;13.30;99.90
16479;DHT22;8350;52.316;10.530;2022-09-09T04:13:14;13.30;99.90
16479;DHT22;8350;52.316;10.530;2022-09-09T04:15:42;13.30;99.90
16479;DHT22;8350;52.316;10.530;2022-09-09T04:18:10;13.30;99.90
16479;DHT22;8350;52.316;10.530;2022-09-09T04:20:37;13.30;99.90
16479;DHT22;8350;52.316;10.530;2022-09-09T04:23:04;13.30;99.90
16479;DHT22;8350;52.316;10.530;2022-09-09T04:25:33;13.30;99.90
16479;DHT22;8350;52.316;10.530;2022-09-09T04:28:00;13.30;99.90
16479;DHT22;8350;52.316;10.530;2022-09-09T04:30:28;13.40;99.90
16479;DHT22;8350;52.316;10.530;2022-09-09T04:32:56;13.40;99.90
16479;DHT22;8350;52.316;10.530;2022-09-09T04:35:23;13.40;99.90
16479;DHT22;8350;52.316;10.530;2022-09-09T04:37:50;13.30;99.90
16479;DHT22;8350;52.316;10.530;2022-09-09T04:40:17;13.30;99.90
16479;DHT22;8350;52.316;10.530;2022-09-09T04:42:46;13.30;99.90
16479;DHT22;8350;52.316;10.530;2022-09-09T04:45:14;13.30;99.90
16479;DHT22;8350;52.316;10.530;2022-09-09T04:47:41;13.40;99.90
16479;DHT22;8350;52.316;10.530;2022-09-09T04:50:08;13.40;99.90
16479;DHT22;8350;52.316;10.530;2022-09-09T04:52:36;13.50;99.90
16479;DHT22;8350;52.316;10.530;2022-09-09T04:55:03;13.50;99.90
16479;DHT22;8350;52.316;10.530;2022-09-09T04:57:30;13.50;99.90
16479;DHT22;8350;52.316;10.530;2022-09-09T05:00:00;13.50;99.90
16479;DHT22;8350;52.316;10.530;2022-09-09T05:02:27;13.50;99.90
16479;DHT22;8350;52.316;10.530;2022-09-09T05:04:55;13.60;99.90
16479;DHT22;8350;52.316;10.530;2022-09-09T05:07:22;13.60;99.90
16479;DHT22;8350;52.316;10.530;2022-09-09T05:09:49;13.70;99.90
16479;DHT22;8350;52.316;10.530;2022-09-09T05:12:16;13.70;99.90
16479;DHT22;8350;52.316;10.530;2022-09-09T05:14:43;13.80;99.90
16479;DHT22;8350;52.316;10.530;2022-09-09T05:17:12;13.90;99.90
16479;DHT22;8350;52.316;10.530;2022-09-09T05:19:40;14.00;99.90
16479;DHT22;8350;52.316;10.530;2022-09-09T05:22:08;14.00;99.90
16479;DHT22;8350;52.316;10.530;2022-09-09T05:24:34;14.10;99.90
16479;DHT22;8350;52.316;10.530;2022-09-09T05:27:02;14.20;99.90
16479;DHT22;8350;52.316;10.530;2022-09-09T05:29:31;14.20;99.90
16479;DHT22;8350;52.316;10.530;2022-09-09T05:31:59;14.30;99.90
16479;DHT22;8350;52.316;10.530;2022-09-09T05:34:28;14.40;99.90
16479;DHT22;8350;52.316;10.530;2022-09-09T05:36:55;14.50;99.90
16479;DHT22;8350;52.316;10.530;2022-09-09T05:39:22;14.60;99.90
16479;DHT22;8350;52.316;10.530;2022-09-09T05:41:49;14.70;99.90
16479;DHT22;8350;52.316;10.530;2022-09-09T05:44:16;14.70;99.90
16479;DHT22;8350;52.316;10.530;2022-09-09T05:46:44;14.70;99.90
16479;DHT22;8350;52.316;10.530;2022-09-09T05:49:11;14.80;99.90
16479;DHT22;8350;52.316;10.530;2022-09-09T05:51:39;14.90;99.90
16479;DHT22;8350;52.316;10.530;2022-09-09T05:54:08;15.00;99.90
16479;DHT22;8350;52.316;10.530;2022-09-09T05:56:35;15.10;99.90
16479;DHT22;8350;52.316;10.530;2022-09-09T05:59:02;15.40;99.90
16479;DHT22;8350;52.316;10.530;2022-09-09T06:01:31;15.80;99.90
16479;DHT22;8350;52.316;10.530;2022-09-09T06:03:58;16.20;99.90
16479;DHT22;8350;52.316;10.530;2022-09-09T06:06:27;16.30;99.90
16479;DHT22;8350;52.316;10.530;2022-09-09T06:08:57;16.40;99.90
16479;DHT22;8350;52.316;10.530;2022-09-09T06:11:26;16.60;99.90
16479;DHT22;8350;52.316;10.530;2022-09-09T06:13:53;16.50;99.90
16479;DHT22;8350;52.316;10.530;2022-09-09T06:16:22;16.30;99.90
16479;DHT22;8350;52.316;10.530;2022-09-09T06:18:50;16.00;99.90
16479;DHT22;8350;52.316;10.530;2022-09-09T06:21:19;15.90;99.90
16479;DHT22;8350;52.316;10.530;2022-09-09T06:23:46;15.70;99.90
16479;DHT22;8350;52.316;10.530;2022-09-09T06:26:18;15.60;99.90
16479;DHT22;8350;52.316;10.530;2022-09-09T06:28:49;15.60;99.90
16479;DHT22;8350;52.316;10.530;2022-09-09T06:31:20;15.60;99.90
16479;DHT22;8350;52.316;10.530;2022-09-09T06:33:52;15.70;99.90
16479;DHT22;8350;52.316;10.530;2022-09-09T06:36:20;16.20;99.90
16479;DHT22;8350;52.316;10.530;2022-09-09T06:38:48;16.90;99.90
16479;DHT22;8350;52.316;10.530;2022-09-09T06:41:18;17.60;99.90
16479;DHT22;8350;52.316;10.530;2022-09-09T06:43:46;18.20;99.90
16479;DHT22;8350;52.316;10.530;2022-09-09T06:46:14;18.70;99.90
16479;DHT22;8350;52.316;10.530;2022-09-09T06:48:42;18.90;99.90
16479;DHT22;8350;52.316;10.530;2022-09-09T06:51:12;18.90;99.90
16479;DHT22;8350;52.316;10.530;2022-09-09T06:53:40;18.80;99.90
16479;DHT22;8350;52.316;10.530;2022-09-09T06:56:20;18.80;99.90
16479;DHT22;8350;52.316;10.530;2022-09-09T06:58:49;18.90;99.90
16479;DHT22;8350;52.316;10.530;2022-09-09T07:01:19;19.10;99.90
16479;DHT22;8350;52.316;10.530;2022-09-09T07:03:48;19.30;99.90
16479;DHT22;8350;52.316;10.530;2022-09-09T07:06:17;19.50;99.90
16479;DHT22;8350;52.316;10.530;2022-09-09T07:08:48;19.40;99.90
16479;DHT22;8350;52.316;10.530;2022-09-09T07:11:19;19.10;99.90
16479;DHT22;8350;52.316;10.530;2022-09-09T07:13:47;18.90;99.90
16479;DHT22;8350;52.316;10.530;2022-09-09T07:16:16;18.70;99.90
16479;DHT22;8350;52.316;10.530;2022-09-09T07:18:44;18.70;99.90
16479;DHT22;8350;52.316;10.530;2022-09-09T07:21:13;19.00;99.90
16479;DHT22;8350;52.316;10.530;2022-09-09T07:23:41;19.10;99.90
16479;DHT22;8350;52.316;10.530;2022-09-09T07:26:09;19.30;99.90
16479;DHT22;8350;52.316;10.530;2022-09-09T07:28:38;19.20;99.90
16479;DHT22;8350;52.316;10.530;2022-09-09T07:31:07;19.10;99.90
16479;DHT22;8350;52.316;10.530;2022-09-09T07:33:35;19.10;99.90
16479;DHT22;8350;52.316;10.530;2022-09-09T07:36:05;19.00;99.90
16479;DHT22;8350;52.316;10.530;2022-09-09T07:38:38;18.90;99.90
16479;DHT22;8350;52.316;10.530;2022-09-09T07:41:06;19.10;99.90
16479;DHT22;8350;52.316;10.530;2022-09-09T07:43:38;19.30;99.90
16479;DHT22;8350;52.316;10.530;2022-09-09T07:46:08;19.50;99.90
16479;DHT22;8350;52.316;10.530;2022-09-09T07:48:36;19.70;99.90
16479;DHT22;8350;52.316;10.530;2022-09-09T07:51:08;20.10;99.90
16479;DHT22;8350;52.316;10.530;2022-09-09T07:53:37;20.40;99.90
16479;DHT22;8350;52.316;10.530;2022-09-09T07:56:05;20.50;99.90
16479;DHT22;8350;52.316;10.530;2022-09-09T07:58:35;20.70;99.90
16479;DHT22;8350;52.316;10.530;2022-09-09T08:01:09;20.80;99.90
16479;DHT22;8350;52.316;10.530;2022-09-09T08:03:37;20.70;99.90
16479;DHT22;8350;52.316;10.530;2022-09-09T08:06:07;20.70;99.90
16479;DHT22;8350;52.316;10.530;2022-09-09T08:08:35;20.50;99.90
16479;DHT22;8350;52.316;10.530;2022-09-09T08:11:06;20.30;99.90
16479;DHT22;8350;52.316;10.530;2022-09-09T08:13:35;20.30;99.90
16479;DHT22;8350;52.316;10.530;2022-09-09T08:16:08;20.40;99.90
16479;DHT22;8350;52.316;10.530;2022-09-09T08:18:36;20.50;99.90
16479;DHT22;8350;52.316;10.530;2022-09-09T08:21:11;20.70;99.90
16479;DHT22;8350;52.316;10.530;2022-09-09T08:23:39;20.80;99.90
16479;DHT22;8350;52.316;10.530;2022-09-09T08:26:09;20.80;99.90
16479;DHT22;8350;52.316;10.530;2022-09-09T08:28:36;20.60;99.90
16479;DHT22;8350;52.316;10.530;2022-09-09T08:31:10;20.40;99.90
16479;DHT22;8350;52.316;10.530;2022-09-09T08:33:37;20.30;99.90
16479;DHT22;8350;52.316;10.530;2022-09-09T08:36:06;20.40;99.90
16479;DHT22;8350;52.316;10.530;2022-09-09T08:38:34;20.60;99.90
16479;DHT22;8350;52.316;10.530;2022-09-09T08:44:02;20.30;99.90
16479;DHT22;8350;52.316;10.530;2022-09-09T08:46:42;20.40;99.90
16479;DHT22;8350;52.316;10.530;2022-09-09T08:49:22;20.60;99.90
16479;DHT22;8350;52.316;10.530;2022-09-09T08:51:54;20.90;99.90
16479;DHT22;8350;52.316;10.530;2022-09-09T08:54:23;21.30;99.90
16479;DHT22;8350;52.316;10.530;2022-09-09T08:56:50;21.40;93.50
16479;DHT22;8350;52.316;10.530;2022-09-09T08:59:18;21.30;51.60
16479;DHT22;8350;52.316;10.530;2022-09-09T09:02:05;21.30;22.30
16479;DHT22;8350;52.316;10.530;2022-09-09T09:04:50;21.60;13.40
16479;DHT22;8350;52.316;10.530;2022-09-09T09:07:28;21.80;1.00
16479;DHT22;8350;52.316;10.530;2022-09-09T09:10:03;21.70;1.00
16479;DHT22;8350;52.316;10.530;2022-09-09T09:12:36;22.10;1.00
16479;DHT22;8350;52.316;10.530;2022-09-09T09:15:11;22.40;1.00
16479;DHT22;8350;52.316;10.530;2022-09-09T09:17:44;22.70;1.00
16479;DHT22;8350;52.316;10.530;2022-09-09T09:20:12;22.80;1.00
16479;DHT22;8350;52.316;10.530;2022-09-09T09:22:47;22.90;1.00
16479;DHT22;8350;52.316;10.530;2022-09-09T09:25:18;22.90;1.00
16479;DHT22;8350;52.316;10.530;2022-09-09T09:27:52;22.80;1.00
16479;DHT22;8350;52.316;10.530;2022-09-09T09:30:24;22.90;1.00
16479;DHT22;8350;52.316;10.530;2022-09-09T09:32:55;23.00;1.00
16479;DHT22;8350;52.316;10.530;2022-09-09T09:35:24;23.10;1.00
16479;DHT22;8350;52.316;10.530;2022-09-09T09:37:50;23.20;1.00
16479;DHT22;8350;52.316;10.530;2022-09-09T09:40:19;23.40;1.00
16479;DHT22;8350;52.316;10.530;2022-09-09T09:42:49;23.40;1.00
16479;DHT22;8350;52.316;10.530;2022-09-09T09:45:26;23.40;1.00
16479;DHT22;8350;52.316;10.530;2022-09-09T09:48:00;23.00;1.00
16479;DHT22;8350;52.316;10.530;2022-09-09T09:50:28;23.00;1.00
16479;DHT22;8350;52.316;10.530;2022-09-09T09:52:57;22.90;1.00
16479;DHT22;8350;52.316;10.530;2022-09-09T09:55:24;23.10;1.00
16479;DHT22;8350;52.316;10.530;2022-09-09T09:57:53;23.40;1.00
16479;DHT22;8350;52.316;10.530;2022-09-09T10:00:22;23.90;1.00
16479;DHT22;8350;52.316;10.530;2022-09-09T10:02:50;23.90;1.00
16479;DHT22;8350;52.316;10.530;2022-09-09T10:05:21;23.60;1.00
16479;DHT22;8350;52.316;10.530;2022-09-09T10:08:04;23.50;1.00
16479;DHT22;8350;52.316;10.530;2022-09-09T10:10:48;23.20;1.00
16479;DHT22;8350;52.316;10.530;2022-09-09T10:13:22;23.40;1.00
16479;DHT22;8350;52.316;10.530;2022-09-09T10:15:59;23.40;1.00
16479;DHT22;8350;52.316;10.530;2022-09-09T10:18:39;23.50;1.00
16479;DHT22;8350;52.316;10.530;2022-09-09T10:21:20;23.60;1.00
16479;DHT22;8350;52.316;10.530;2022-09-09T10:24:02;23.50;1.00
16479;DHT22;8350;52.316;10.530;2022-09-09T10:26:40;23.40;1.00
16479;DHT22;8350;52.316;10.530;2022-09-09T10:29:22;23.30;1.00
16479;DHT22;8350;52.316;10.530;2022-09-09T10:32:02;23.30;1.00
16479;DHT22;8350;52.316;10.530;2022-09-09T10:34:55;23.40;1.00
16479;DHT22;8350;52.316;10.530;2022-09-09T10:37:34;23.50;1.00
16479;DHT22;8350;52.316;10.530;2022-09-09T10:40:15;23.30;1.00
16479;DHT22;8350;52.316;10.530;2022-09-09T10:42:47;23.30;1.00
16479;DHT22;8350;52.316;10.530;2022-09-09T10:45:18;23.10;1.00
16479;DHT22;8350;52.316;10.530;2022-09-09T10:50:52;23.40;1.00
16479;DHT22;8350;52.316;10.530;2022-09-09T10:53:31;23.80;1.00
16479;DHT22;8350;52.316;10.530;2022-09-09T10:56:04;24.00;1.00
16479;DHT22;8350;52.316;10.530;2022-09-09T10:58:37;23.70;1.00
16479;DHT22;8350;52.316;10.530;2022-09-09T11:01:15;23.60;1.00
16479;DHT22;8350;52.316;10.530;2022-09-09T11:03:46;23.40;1.00
16479;DHT22;8350;52.316;10.530;2022-09-09T11:06:21;23.10;1.00
16479;DHT22;8350;52.316;10.530;2022-09-09T11:08:52;22.80;1.00
16479;DHT22;8350;52.316;10.530;2022-09-09T11:11:22;22.60;1.00
16479;DHT22;8350;52.316;10.530;2022-09-09T11:13:57;22.60;1.00
16479;DHT22;8350;52.316;10.530;2022-09-09T11:16:29;22.60;1.00
16479;DHT22;8350;52.316;10.530;2022-09-09T11:19:02;22.50;1.00
16479;DHT22;8350;52.316;10.530;2022-09-09T11:21:34;22.50;1.00
16479;DHT22;8350;52.316;10.530;2022-09-09T11:24:09;22.50;1.00
16479;DHT22;8350;52.316;10.530;2022-09-09T11:26:40;22.40;1.00
16479;DHT22;8350;52.316;10.530;2022-09-09T11:29:34;22.40;1.00
16479;DHT22;8350;52.316;10.530;2022-09-09T11:32:14;22.30;1.00
16479;DHT22;8350;52.316;10.530;2022-09-09T11:34:53;22.20;1.00
16479;DHT22;8350;52.316;10.530;2022-09-09T11:37:48;22.10;1.00
16479;DHT22;8350;52.316;10.530;2022-09-09T11:40:22;21.90;1.00
16479;DHT22;8350;52.316;10.530;2022-09-09T11:43:01;21.60;1.00
16479;DHT22;8350;52.316;10.530;2022-09-09T11:45:30;21.20;17.80
16479;DHT22;8350;52.316;10.530;2022-09-09T11:47:58;21.20;28.10
16479;DHT22;8350;52.316;10.530;2022-09-09T11:50:31;20.70;71.70
16479;DHT22;8350;52.316;10.530;2022-09-09T11:53:05;20.60;91.30
16479;DHT22;8350;52.316;10.530;2022-09-09T11:55:42;20.40;99.90
16479;DHT22;8350;52.316;10.530;2022-09-09T11:58:16;20.40;99.90
16479;DHT22;8350;52.316;10.530;2022-09-09T12:00:45;20.40;99.90
16479;DHT22;8350;52.316;10.530;2022-09-09T12:03:38;20.50;99.90
16479;DHT22;8350;52.316;10.530;2022-09-09T12:06:14;20.50;99.90
16479;DHT22;8350;52.316;10.530;2022-09-09T12:08:47;20.70;99.90
16479;DHT22;8350;52.316;10.530;2022-09-09T12:11:25;20.90;99.90
16479;DHT22;8350;52.316;10.530;2022-09-09T12:13:54;21.00;99.90
16479;DHT22;8350;52.316;10.530;2022-09-09T12:16:30;21.40;99.90
16479;DHT22;8350;52.316;10.530;2022-09-09T12:19:15;21.90;79.40
16479;DHT22;8350;52.316;10.530;2022-09-09T12:21:49;22.30;46.80
16479;DHT22;8350;52.316;10.530;2022-09-09T12:24:24;22.60;1.00
16479;DHT22;8350;52.316;10.530;2022-09-09T12:26:58;22.90;1.00
16479;DHT22;8350;52.316;10.530;2022-09-09T12:29:32;23.00;1.00
16479;DHT22;8350;52.316;10.530;2022-09-09T12:32:07;23.20;1.00
16479;DHT22;8350;52.316;10.530;2022-09-09T12:34:39;23.20;1.00
16479;DHT22;8350;52.316;10.530;2022-09-09T12:37:16;23.30;1.00
16479;DHT22;8350;52.316;10.530;2022-09-09T12:39:47;23.70;1.00
16479;DHT22;8350;52.316;10.530;2022-09-09T12:42:19;24.10;1.00
16479;DHT22;8350;52.316;10.530;2022-09-09T12:44:57;24.40;1.00
16479;DHT22;8350;52.316;10.530;2022-09-09T12:47:32;24.80;1.00
16479;DHT22;8350;52.316;10.530;2022-09-09T12:50:01;25.10;1.00
16479;DHT22;8350;52.316;10.530;2022-09-09T12:52:31;25.00;1.00
16479;DHT22;8350;52.316;10.530;2022-09-09T12:55:00;24.80;1.00
16479;DHT22;8350;52.316;10.530;2022-09-09T12:57:35;24.10;1.00
16479;DHT22;8350;52.316;10.530;2022-09-09T13:00:11;23.60;1.00
16479;DHT22;8350;52.316;10.530;2022-09-09T13:02:47;23.30;1.00
16479;DHT22;8350;52.316;10.530;2022-09-09T13:05:18;22.90;1.00
16479;DHT22;8350;52.316;10.530;2022-09-09T13:07:46;22.50;1.00
16479;DHT22;8350;52.316;10.530;2022-09-09T13:10:15;22.50;1.00
16479;DHT22;8350;52.316;10.530;2022-09-09T13:12:47;22.30;1.00
16479;DHT22;8350;52.316;10.530;2022-09-09T13:15:19;22.40;1.00
16479;DHT22;8350;52.316;10.530;2022-09-09T13:17:53;22.20;1.00
16479;DHT22;8350;52.316;10.530;2022-09-09T13:20:22;21.90;1.00
16479;DHT22;8350;52.316;10.530;2022-09-09T13:22:51;21.70;1.00
16479;DHT22;8350;52.316;10.530;2022-09-09T13:25:22;21.90;1.00
16479;DHT22;8350;52.316;10.530;2022-09-09T13:27:58;21.90;1.00
16479;DHT22;8350;52.316;10.530;2022-09-09T13:30:28;22.20;1.00
16479;DHT22;8350;52.316;10.530;2022-09-09T13:33:17;22.40;1.00
16479;DHT22;8350;52.316;10.530;2022-09-09T13:35:47;22.90;1.00
16479;DHT22;8350;52.316;10.530;2022-09-09T13:38:16;23.30;1.00
16479;DHT22;8350;52.316;10.530;2022-09-09T13:40:52;23.30;1.00
16479;DHT22;8350;52.316;10.530;2022-09-09T13:43:23;23.50;1.00
16479;DHT22;8350;52.316;10.530;2022-09-09T13:45:54;23.50;1.00
16479;DHT22;8350;52.316;10.530;2022-09-09T13:48:24;23.40;1.00
16479;DHT22;8350;52.316;10.530;2022-09-09T13:50:56;23.50;1.00
16479;DHT22;8350;52.316;10.530;2022-09-09T13:53:24;23.40;1.00
16479;DHT22;8350;52.316;10.530;2022-09-09T13:55:52;23.10;1.00
16479;DHT22;8350;52.316;10.530;2022-09-09T13:58:21;23.10;1.00
16479;DHT22;8350;52.316;10.530;2022-09-09T14:00:50;23.10;1.00
16479;DHT22;8350;52.316;10.530;2022-09-09T14:03:20;23.10;99.90
16479;DHT22;8350;52.316;10.530;2022-09-09T14:05:47;23.10;1.00
16479;DHT22;8350;52.316;10.530;2022-09-09T14:08:23;23.10;1.00
16479;DHT22;8350;52.316;10.530;2022-09-09T14:10:50;23.20;1.00
16479;DHT22;8350;52.316;10.530;2022-09-09T14:13:17;23.00;1.00
16479;DHT22;8350;52.316;10.530;2022-09-09T14:15:48;22.90;1.00
16479;DHT22;8350;52.316;10.530;2022-09-09T14:18:15;23.00;1.00
16479;DHT22;8350;52.316;10.530;2022-09-09T14:20:42;23.00;1.00
16479;DHT22;8350;52.316;10.530;2022-09-09T14:23:10;22.50;1.00
16479;DHT22;8350;52.316;10.530;2022-09-09T14:25:40;22.20;1.00
16479;DHT22;8350;52.316;10.530;2022-09-09T14:28:09;22.20;1.00
16479;DHT22;8350;52.316;10.530;2022-09-09T14:30:38;22.30;1.00
16479;DHT22;8350;52.316;10.530;2022-09-09T14:33:07;22.50;1.00
16479;DHT22;8350;52.316;10.530;2022-09-09T14:35:34;22.50;1.00
16479;DHT22;8350;52.316;10.530;2022-09-09T14:38:02;22.40;1.00
16479;DHT22;8350;52.316;10.530;2022-09-09T14:40:29;22.40;1.00
16479;DHT22;8350;52.316;10.530;2022-09-09T14:42:56;22.30;1.00
16479;DHT22;8350;52.316;10.530;2022-09-09T14:45:24;22.40;1.00
16479;DHT22;8350;52.316;10.530;2022-09-09T14:47:51;22.30;1.00
16479;DHT22;8350;52.316;10.530;2022-09-09T14:50:20;22.20;1.00
16479;DHT22;8350;52.316;10.530;2022-09-09T14:52:47;22.00;1.00
16479;DHT22;8350;52.316;10.530;2022-09-09T14:55:15;22.00;1.00
16479;DHT22;8350;52.316;10.530;2022-09-09T14:57:42;21.80;1.00
16479;DHT22;8350;52.316;10.530;2022-09-09T15:00:10;21.70;1.00
16479;DHT22;8350;52.316;10.530;2022-09-09T15:02:37;21.50;1.00
16479;DHT22;8350;52.316;10.530;2022-09-09T15:05:06;21.40;1.00
16479;DHT22;8350;52.316;10.530;2022-09-09T15:07:35;21.50;1.00
16479;DHT22;8350;52.316;10.530;2022-09-09T15:10:03;21.70;1.00
16479;DHT22;8350;52.316;10.530;2022-09-09T15:12:30;21.80;1.00
16479;DHT22;8350;52.316;10.530;2022-09-09T15:14:58;21.90;1.00
16479;DHT22;8350;52.316;10.530;2022-09-09T15:17:25;22.00;1.00
16479;DHT22;8350;52.316;10.530;2022-09-09T15:19:53;22.10;1.00
16479;DHT22;8350;52.316;10.530;2022-09-09T15:22:20;22.20;1.00
16479;DHT22;8350;52.316;10.530;2022-09-09T15:24:49;22.30;1.00
16479;DHT22;8350;52.316;10.530;2022-09-09T15:27:16;22.30;1.00
16479;DHT22;8350;52.316;10.530;2022-09-09T15:29:44;22.20;1.00
16479;DHT22;8350;52.316;10.530;2022-09-09T15:32:11;21.90;1.00
16479;DHT22;8350;52.316;10.530;2022-09-09T15:34:37;21.80;1.00
16479;DHT22;8350;52.316;10.530;2022-09-09T15:37:05;21.90;1.00
16479;DHT22;8350;52.316;10.530;2022-09-09T15:39:33;21.90;1.00
16479;DHT22;8350;52.316;10.530;2022-09-09T15:42:01;22.00;1.00
16479;DHT22;8350;52.316;10.530;2022-09-09T15:44:28;22.00;1.00
16479;DHT22;8350;52.316;10.530;2022-09-09T15:46:55;22.10;1.00
16479;DHT22;8350;52.316;10.530;2022-09-09T15:49:23;22.10;1.00
16479;DHT22;8350;52.316;10.530;2022-09-09T15:51:51;22.10;1.00
16479;DHT22;8350;52.316;10.530;2022-09-09T15:54:20;22.10;1.00
16479;DHT22;8350;52.316;10.530;2022-09-09T15:56:51;22.20;1.00
16479;DHT22;8350;52.316;10.530;2022-09-09T15:59:21;22.10;1.00
16479;DHT22;8350;52.316;10.530;2022-09-09T16:01:49;22.10;1.00
16479;DHT22;8350;52.316;10.530;2022-09-09T16:04:17;22.10;1.00
16479;DHT22;8350;52.316;10.530;2022-09-09T16:06:49;21.90;1.00
16479;DHT22;8350;52.316;10.530;2022-09-09T16:09:17;21.90;1.00